sensor_id;sensor_type;location;lat;lon;timestamp;temperature;humidity
38118;DHT22;23928;47.562;7.508;2023-03-24T00:00:58;13.30;99.90
38118;DHT22;23928;47.562;7.508;2023-03-24T00:03:25;13.30;99.90
38118;DHT22;23928;47.562;7.508;2023-03-24T00:06:02;13.20;99.90
38118;DHT22;23928;47.562;7.508;2023-03-24T00:08:30;13.20;99.90
38118;DHT22;23928;47.562;7.508;2023-03-24T00:11:00;13.20;99.90
38118;DHT22;23928;47.562;7.508;2023-03-24T00:13:28;13.20;99.90
38118;DHT22;23928;47.562;7.508;2023-03-24T00:15:54;13.10;99.90
38118;DHT22;23928;47.562;7.508;2023-03-24T00:18:21;13.20;99.90
38118;DHT22;23928;47.562;7.508;2023-03-24T00:20:53;13.10;99.90
38118;DHT22;23928;47.562;7.508;2023-03-24T00:23:27;13.30;99.90
38118;DHT22;23928;47.562;7.508;2023-03-24T00:26:09;13.30;99.90
38118;DHT22;23928;47.562;7.508;2023-03-24T00:28:37;13.30;99.90
38118;DHT22;23928;47.562;7.508;2023-03-24T00:31:05;13.40;99.90
38118;DHT22;23928;47.562;7.508;2023-03-24T00:33:31;13.40;99.90
38118;DHT22;23928;47.562;7.508;2023-03-24T00:36:03;13.30;99.90
38118;DHT22;23928;47.562;7.508;2023-03-24T00:38:30;13.30;99.90
38118;DHT22;23928;47.562;7.508;2023-03-24T00:40:56;13.20;99.90
38118;DHT22;23928;47.562;7.508;2023-03-24T00:43:23;13.10;99.90
38118;DHT22;23928;47.562;7.508;2023-03-24T00:45:49;13.00;99.90
38118;DHT22;23928;47.562;7.508;2023-03-24T00:48:17;13.00;99.90
38118;DHT22;23928;47.562;7.508;2023-03-24T00:50:46;12.90;99.90
38118;DHT22;23928;47.562;7.508;2023-03-24T00:53:13;12.90;99.90
38118;DHT22;23928;47.562;7.508;2023-03-24T00:55:41;12.70;99.90
38118;DHT22;23928;47.562;7.508;2023-03-24T00:58:07;12.90;99.90
38118;DHT22;23928;47.562;7.508;2023-03-24T01:00:32;13.00;99.90
38118;DHT22;23928;47.562;7.508;2023-03-24T01:02:59;13.00;99.90
38118;DHT22;23928;47.562;7.508;2023-03-24T01:05:29;13.10;99.90
38118;DHT22;23928;47.562;7.508;2023-03-24T01:07:56;13.30;99.90
38118;DHT22;23928;47.562;7.508;2023-03-24T01:10:25;13.50;99.90
38118;DHT22;23928;47.562;7.508;2023-03-24T01:12:53;13.80;99.90
38118;DHT22;23928;47.562;7.508;2023-03-24T01:15:20;13.70;99.90
38118;DHT22;23928;47.562;7.508;2023-03-24T01:17:47;13.80;99.90
38118;DHT22;23928;47.562;7.508;2023-03-24T01:20:14;13.90;99.90
38118;DHT22;23928;47.562;7.508;2023-03-24T01:22:41;14.00;99.90
38118;DHT22;23928;47.562;7.508;2023-03-24T01:25:14;14.10;99.90
38118;DHT22;23928;47.562;7.508;2023-03-24T01:27:43;14.10;99.90
38118;DHT22;23928;47.562;7.508;2023-03-24T01:30:13;14.50;99.90
38118;DHT22;23928;47.562;7.508;2023-03-24T01:32:39;14.80;99.90
38118;DHT22;23928;47.562;7.508;2023-03-24T01:35:06;15.00;99.90
38118;DHT22;23928;47.562;7.508;2023-03-24T01:37:31;15.30;99.90
38118;DHT22;23928;47.562;7.508;2023-03-24T01:39:57;15.40;99.90
38118;DHT22;23928;47.562;7.508;2023-03-24T01:42:25;15.70;99.90
38118;DHT22;23928;47.562;7.508;2023-03-24T01:44:56;15.70;99.90
38118;DHT22;23928;47.562;7.508;2023-03-24T01:47:22;15.80;99.90
38118;DHT22;23928;47.562;7.508;2023-03-24T01:49:53;15.90;99.90
38118;DHT22;23928;47.562;7.508;2023-03-24T01:52:34;15.80;99.90
38118;DHT22;23928;47.562;7.508;2023-03-24T01:55:05;15.80;99.90
38118;DHT22;23928;47.562;7.508;2023-03-24T01:57:43;15.80;99.90
38118;DHT22;23928;47.562;7.508;2023-03-24T02:00:11;15.80;99.90
38118;DHT22;23928;47.562;7.508;2023-03-24T02:02:41;15.70;99.90
38118;DHT22;23928;47.562;7.508;2023-03-24T02:05:09;15.60;99.90
38118;DHT22;23928;47.562;7.508;2023-03-24T02:08:26;15.50;99.90
38118;DHT22;23928;47.562;7.508;2023-03-24T02:10:54;15.50;99.90
38118;DHT22;23928;47.562;7.508;2023-03-24T02:13:21;15.60;99.90
38118;DHT22;23928;47.562;7.508;2023-03-24T02:30:31;15.50;99.90
38118;DHT22;23928;47.562;7.508;2023-03-24T02:46:02;15.40;99.90
38118;DHT22;23928;47.562;7.508;2023-03-24T02:59:04;14.80;99.90
38118;DHT22;23928;47.562;7.508;2023-03-24T03:01:36;14.90;99.90
38118;DHT22;23928;47.562;7.508;2023-03-24T03:04:08;15.00;99.90
38118;DHT22;23928;47.562;7.508;2023-03-24T03:06:38;15.00;99.90
38118;DHT22;23928;47.562;7.508;2023-03-24T03:09:11;14.90;99.90
38118;DHT22;23928;47.562;7.508;2023-03-24T03:11:40;14.80;99.90
38118;DHT22;23928;47.562;7.508;2023-03-24T03:14:17;15.10;99.90
38118;DHT22;23928;47.562;7.508;2023-03-24T03:16:49;15.20;99.90
38118;DHT22;23928;47.562;7.508;2023-03-24T03:19:23;15.40;99.90
38118;DHT22;23928;47.562;7.508;2023-03-24T03:21:52;15.20;99.90
38118;DHT22;23928;47.562;7.508;2023-03-24T03:24:20;15.30;99.90
38118;DHT22;23928;47.562;7.508;2023-03-24T03:27:16;15.20;99.90
38118;DHT22;23928;47.562;7.508;2023-03-24T03:29:44;15.30;99.90
38118;DHT22;23928;47.562;7.508;2023-03-24T03:32:16;15.50;99.90
38118;DHT22;23928;47.562;7.508;2023-03-24T03:34:53;15.50;99.90
38118;DHT22;23928;47.562;7.508;2023-03-24T03:37:33;15.70;99.90
38118;DHT22;23928;47.562;7.508;2023-03-24T03:40:31;16.10;99.90
38118;DHT22;23928;47.562;7.508;2023-03-24T03:42:55;16.30;99.90
38118;DHT22;23928;47.562;7.508;2023-03-24T03:45:20;16.40;99.90
38118;DHT22;23928;47.562;7.508;2023-03-24T03:47:46;16.30;99.90
38118;DHT22;23928;47.562;7.508;2023-03-24T03:50:12;16.20;99.90
38118;DHT22;23928;47.562;7.508;2023-03-24T03:52:38;16.10;99.90
38118;DHT22;23928;47.562;7.508;2023-03-24T03:55:06;15.90;99.90
38118;DHT22;23928;47.562;7.508;2023-03-24T03:57:34;15.70;99.90
38118;DHT22;23928;47.562;7.508;2023-03-24T04:00:02;15.50;99.90
38118;DHT22;23928;47.562;7.508;2023-03-24T04:02:50;15.40;99.90
38118;DHT22;23928;47.562;7.508;2023-03-24T04:05:32;15.20;99.90
38118;DHT22;23928;47.562;7.508;2023-03-24T04:08:33;15.10;99.90
38118;DHT22;23928;47.562;7.508;2023-03-24T04:24:47;14.50;99.90
38118;DHT22;23928;47.562;7.508;2023-03-24T04:27:56;14.20;99.90
38118;DHT22;23928;47.562;7.508;2023-03-24T04:30:39;14.10;99.90
38118;DHT22;23928;47.562;7.508;2023-03-24T04:33:14;14.20;99.90
38118;DHT22;23928;47.562;7.508;2023-03-24T04:35:48;14.30;99.90
38118;DHT22;23928;47.562;7.508;2023-03-24T04:38:23;14.20;99.90
38118;DHT22;23928;47.562;7.508;2023-03-24T04:40:53;14.10;99.90
38118;DHT22;23928;47.562;7.508;2023-03-24T04:43:24;14.10;99.90
38118;DHT22;23928;47.562;7.508;2023-03-24T04:45:52;14.10;99.90
38118;DHT22;23928;47.562;7.508;2023-03-24T04:48:22;13.90;99.90
38118;DHT22;23928;47.562;7.508;2023-03-24T04:50:57;13.80;99.90
38118;DHT22;23928;47.562;7.508;2023-03-24T04:53:25;13.80;99.90
38118;DHT22;23928;47.562;7.508;2023-03-24T04:58:29;13.70;99.90
38118;DHT22;23928;47.562;7.508;2023-03-24T05:00:55;13.60;99.90
38118;DHT22;23928;47.562;7.508;2023-03-24T05:03:22;13.60;99.90
38118;DHT22;23928;47.562;7.508;2023-03-24T05:05:49;13.50;99.90
38118;DHT22;23928;47.562;7.508;2023-03-24T05:08:15;13.50;99.90
38118;DHT22;23928;47.562;7.508;2023-03-24T05:10:42;13.60;99.90
38118;DHT22;23928;47.562;7.508;2023-03-24T05:13:08;13.50;99.90
38118;DHT22;23928;47.562;7.508;2023-03-24T05:15:34;13.40;99.90
38118;DHT22;23928;47.562;7.508;2023-03-24T05:18:00;13.30;99.90
38118;DHT22;23928;47.562;7.508;2023-03-24T05:20:26;13.30;99.90
38118;DHT22;23928;47.562;7.508;2023-03-24T05:22:52;13.40;99.90
38118;DHT22;23928;47.562;7.508;2023-03-24T05:25:19;13.30;99.90
38118;DHT22;23928;47.562;7.508;2023-03-24T05:27:45;13.30;99.90
38118;DHT22;23928;47.562;7.508;2023-03-24T05:30:11;13.40;99.90
38118;DHT22;23928;47.562;7.508;2023-03-24T05:32:37;13.40;99.90
38118;DHT22;23928;47.562;7.508;2023-03-24T05:35:04;13.40;99.90
38118;DHT22;23928;47.562;7.508;2023-03-24T05:37:30;13.40;99.90
38118;DHT22;23928;47.562;7.508;2023-03-24T05:39:55;13.40;99.90
38118;DHT22;23928;47.562;7.508;2023-03-24T05:42:21;13.50;99.90
38118;DHT22;23928;47.562;7.508;2023-03-24T05:44:47;13.60;99.90
38118;DHT22;23928;47.562;7.508;2023-03-24T05:47:13;13.60;99.90
38118;DHT22;23928;47.562;7.508;2023-03-24T05:49:44;13.60;99.90
38118;DHT22;23928;47.562;7.508;2023-03-24T05:52:11;13.60;99.90
38118;DHT22;23928;47.562;7.508;2023-03-24T05:54:37;13.50;99.90
38118;DHT22;23928;47.562;7.508;2023-03-24T05:57:07;13.50;99.90
38118;DHT22;23928;47.562;7.508;2023-03-24T05:59:35;13.50;99.90
38118;DHT22;23928;47.562;7.508;2023-03-24T06:02:02;13.40;99.90
38118;DHT22;23928;47.562;7.508;2023-03-24T06:04:28;13.30;99.90
38118;DHT22;23928;47.562;7.508;2023-03-24T06:06:58;13.20;99.90
38118;DHT22;23928;47.562;7.508;2023-03-24T06:09:29;13.20;99.90
38118;DHT22;23928;47.562;7.508;2023-03-24T06:12:01;13.10;99.90
38118;DHT22;23928;47.562;7.508;2023-03-24T06:14:26;13.20;99.90
38118;DHT22;23928;47.562;7.508;2023-03-24T06:16:53;13.30;99.90
38118;DHT22;23928;47.562;7.508;2023-03-24T06:19:25;13.30;99.90
38118;DHT22;23928;47.562;7.508;2023-03-24T06:21:52;13.40;99.90
38118;DHT22;23928;47.562;7.508;2023-03-24T06:24:18;13.20;99.90
38118;DHT22;23928;47.562;7.508;2023-03-24T06:26:44;13.10;99.90
38118;DHT22;23928;47.562;7.508;2023-03-24T06:29:11;13.10;99.90
38118;DHT22;23928;47.562;7.508;2023-03-24T06:31:37;13.10;99.90
38118;DHT22;23928;47.562;7.508;2023-03-24T06:34:04;13.10;99.90
38118;DHT22;23928;47.562;7.508;2023-03-24T06:36:30;13.20;99.90
38118;DHT22;23928;47.562;7.508;2023-03-24T06:38:55;13.20;99.90
38118;DHT22;23928;47.562;7.508;2023-03-24T06:41:22;13.20;99.90
38118;DHT22;23928;47.562;7.508;2023-03-24T06:43:47;13.20;99.90
38118;DHT22;23928;47.562;7.508;2023-03-24T06:46:13;13.30;99.90
38118;DHT22;23928;47.562;7.508;2023-03-24T06:48:39;13.50;99.90
38118;DHT22;23928;47.562;7.508;2023-03-24T06:51:05;13.60;99.90
38118;DHT22;23928;47.562;7.508;2023-03-24T06:53:31;13.70;99.90
38118;DHT22;23928;47.562;7.508;2023-03-24T06:55:57;13.70;99.90
38118;DHT22;23928;47.562;7.508;2023-03-24T06:58:22;13.70;99.90
38118;DHT22;23928;47.562;7.508;2023-03-24T07:00:48;13.70;99.90
38118;DHT22;23928;47.562;7.508;2023-03-24T07:03:15;13.70;99.90
38118;DHT22;23928;47.562;7.508;2023-03-24T07:05:43;13.70;99.90
38118;DHT22;23928;47.562;7.508;2023-03-24T07:08:09;13.70;99.90
38118;DHT22;23928;47.562;7.508;2023-03-24T07:10:37;13.70;99.90
38118;DHT22;23928;47.562;7.508;2023-03-24T07:13:04;13.70;99.90
38118;DHT22;23928;47.562;7.508;2023-03-24T07:15:30;13.70;99.90
38118;DHT22;23928;47.562;7.508;2023-03-24T07:17:56;13.70;99.90
38118;DHT22;23928;47.562;7.508;2023-03-24T07:20:21;13.60;99.90
38118;DHT22;23928;47.562;7.508;2023-03-24T07:22:47;13.60;99.90
38118;DHT22;23928;47.562;7.508;2023-03-24T07:25:13;13.70;99.90
38118;DHT22;23928;47.562;7.508;2023-03-24T07:27:39;13.50;99.90
38118;DHT22;23928;47.562;7.508;2023-03-24T07:30:05;13.60;99.90
38118;DHT22;23928;47.562;7.508;2023-03-24T07:32:32;13.60;99.90
38118;DHT22;23928;47.562;7.508;2023-03-24T07:35:05;13.60;99.90
38118;DHT22;23928;47.562;7.508;2023-03-24T07:37:31;13.80;99.90
38118;DHT22;23928;47.562;7.508;2023-03-24T07:39:56;13.80;99.90
38118;DHT22;23928;47.562;7.508;2023-03-24T07:42:23;13.80;99.90
38118;DHT22;23928;47.562;7.508;2023-03-24T07:44:49;13.70;99.90
38118;DHT22;23928;47.562;7.508;2023-03-24T07:47:15;13.70;99.90
38118;DHT22;23928;47.562;7.508;2023-03-24T07:49:40;13.60;99.90
38118;DHT22;23928;47.562;7.508;2023-03-24T07:52:06;13.60;99.90
38118;DHT22;23928;47.562;7.508;2023-03-24T07:54:32;13.60;99.90
38118;DHT22;23928;47.562;7.508;2023-03-24T07:57:01;13.60;99.90
38118;DHT22;23928;47.562;7.508;2023-03-24T07:59:26;13.60;99.90
38118;DHT22;23928;47.562;7.508;2023-03-24T08:01:52;13.60;99.90
38118;DHT22;23928;47.562;7.508;2023-03-24T08:04:18;13.60;99.90
38118;DHT22;23928;47.562;7.508;2023-03-24T08:06:44;13.60;99.90
38118;DHT22;23928;47.562;7.508;2023-03-24T08:09:11;13.70;99.90
38118;DHT22;23928;47.562;7.508;2023-03-24T08:11:37;13.80;99.90
38118;DHT22;23928;47.562;7.508;2023-03-24T08:14:03;13.80;99.90
38118;DHT22;23928;47.562;7.508;2023-03-24T08:16:29;13.90;99.90
38118;DHT22;23928;47.562;7.508;2023-03-24T08:18:54;13.90;99.90
38118;DHT22;23928;47.562;7.508;2023-03-24T08:21:23;14.00;99.90
38118;DHT22;23928;47.562;7.508;2023-03-24T08:23:49;14.00;99.90
38118;DHT22;23928;47.562;7.508;2023-03-24T08:26:15;14.10;99.90
38118;DHT22;23928;47.562;7.508;2023-03-24T08:28:41;14.00;99.90
38118;DHT22;23928;47.562;7.508;2023-03-24T08:31:07;14.00;99.90
38118;DHT22;23928;47.562;7.508;2023-03-24T08:33:33;14.00;99.90
38118;DHT22;23928;47.562;7.508;2023-03-24T08:35:58;13.90;99.90
38118;DHT22;23928;47.562;7.508;2023-03-24T08:38:25;13.90;99.90
38118;DHT22;23928;47.562;7.508;2023-03-24T08:40:59;13.90;99.90
38118;DHT22;23928;47.562;7.508;2023-03-24T08:43:28;14.00;99.90
38118;DHT22;23928;47.562;7.508;2023-03-24T08:45:55;13.80;99.90
38118;DHT22;23928;47.562;7.508;2023-03-24T08:48:21;13.80;99.90
38118;DHT22;23928;47.562;7.508;2023-03-24T08:50:47;13.80;99.90
38118;DHT22;23928;47.562;7.508;2023-03-24T08:53:13;13.70;99.90
38118;DHT22;23928;47.562;7.508;2023-03-24T08:55:39;13.70;99.90
38118;DHT22;23928;47.562;7.508;2023-03-24T08:58:08;13.60;99.90
38118;DHT22;23928;47.562;7.508;2023-03-24T09:00:37;13.50;99.90
38118;DHT22;23928;47.562;7.508;2023-03-24T09:03:03;13.40;99.90
38118;DHT22;23928;47.562;7.508;2023-03-24T09:05:31;13.40;99.90
38118;DHT22;23928;47.562;7.508;2023-03-24T09:07:57;13.50;99.90
38118;DHT22;23928;47.562;7.508;2023-03-24T09:10:25;13.40;99.90
38118;DHT22;23928;47.562;7.508;2023-03-24T09:12:50;13.30;99.90
38118;DHT22;23928;47.562;7.508;2023-03-24T09:15:16;13.30;99.90
38118;DHT22;23928;47.562;7.508;2023-03-24T09:17:43;13.30;99.90
38118;DHT22;23928;47.562;7.508;2023-03-24T09:20:13;13.30;99.90
38118;DHT22;23928;47.562;7.508;2023-03-24T09:22:41;13.30;99.90
38118;DHT22;23928;47.562;7.508;2023-03-24T09:25:09;13.40;99.90
38118;DHT22;23928;47.562;7.508;2023-03-24T09:27:35;13.40;99.90
38118;DHT22;23928;47.562;7.508;2023-03-24T09:30:02;13.40;99.90
38118;DHT22;23928;47.562;7.508;2023-03-24T09:32:28;13.40;99.90
38118;DHT22;23928;47.562;7.508;2023-03-24T09:34:53;13.40;99.90
38118;DHT22;23928;47.562;7.508;2023-03-24T09:37:19;13.40;99.90
38118;DHT22;23928;47.562;7.508;2023-03-24T09:39:45;13.50;99.90
38118;DHT22;23928;47.562;7.508;2023-03-24T09:42:38;13.50;99.90
38118;DHT22;23928;47.562;7.508;2023-03-24T09:45:12;13.60;99.90
38118;DHT22;23928;47.562;7.508;2023-03-24T09:47:45;13.60;99.90
38118;DHT22;23928;47.562;7.508;2023-03-24T09:50:26;13.60;99.90
38118;DHT22;23928;47.562;7.508;2023-03-24T09:52:57;13.50;99.90
38118;DHT22;23928;47.562;7.508;2023-03-24T09:55:26;13.50;99.90
38118;DHT22;23928;47.562;7.508;2023-03-24T09:57:56;13.50;99.90
38118;DHT22;23928;47.562;7.508;2023-03-24T10:00:28;13.50;99.90
38118;DHT22;23928;47.562;7.508;2023-03-24T10:03:28;13.50;99.90
38118;DHT22;23928;47.562;7.508;2023-03-24T10:08:32;13.50;99.90
38118;DHT22;23928;47.562;7.508;2023-03-24T10:27:31;12.50;99.90
38118;DHT22;23928;47.562;7.508;2023-03-24T10:30:12;12.40;99.90
38118;DHT22;23928;47.562;7.508;2023-03-24T10:32:40;12.40;99.90
38118;DHT22;23928;47.562;7.508;2023-03-24T10:35:24;12.30;99.90
38118;DHT22;23928;47.562;7.508;2023-03-24T10:37:51;12.40;99.90
38118;DHT22;23928;47.562;7.508;2023-03-24T10:40:19;12.40;99.90
38118;DHT22;23928;47.562;7.508;2023-03-24T10:42:47;12.20;99.90
38118;DHT22;23928;47.562;7.508;2023-03-24T10:45:23;12.20;99.90
38118;DHT22;23928;47.562;7.508;2023-03-24T10:47:50;12.30;99.90
38118;DHT22;23928;47.562;7.508;2023-03-24T10:50:17;12.20;99.90
38118;DHT22;23928;47.562;7.508;2023-03-24T10:52:48;12.20;99.90
38118;DHT22;23928;47.562;7.508;2023-03-24T10:55:20;12.10;99.90
38118;DHT22;23928;47.562;7.508;2023-03-24T10:57:49;12.10;99.90
38118;DHT22;23928;47.562;7.508;2023-03-24T11:00:37;12.20;99.90
38118;DHT22;23928;47.562;7.508;2023-03-24T11:03:10;12.10;99.90
38118;DHT22;23928;47.562;7.508;2023-03-24T11:05:38;12.10;99.90
38118;DHT22;23928;47.562;7.508;2023-03-24T11:10:42;12.20;99.90
38118;DHT22;23928;47.562;7.508;2023-03-24T11:13:28;12.30;99.90
38118;DHT22;23928;47.562;7.508;2023-03-24T11:15:55;12.10;99.90
38118;DHT22;23928;47.562;7.508;2023-03-24T11:18:22;12.30;99.90
38118;DHT22;23928;47.562;7.508;2023-03-24T11:21:07;12.20;99.90
38118;DHT22;23928;47.562;7.508;2023-03-24T11:23:40;12.30;99.90
38118;DHT22;23928;47.562;7.508;2023-03-24T11:26:20;12.10;99.90
38118;DHT22;23928;47.562;7.508;2023-03-24T11:28:52;12.30;99.90
38118;DHT22;23928;47.562;7.508;2023-03-24T11:31:32;12.40;99.90
38118;DHT22;23928;47.562;7.508;2023-03-24T11:39:23;12.50;99.90
38118;DHT22;23928;47.562;7.508;2023-03-24T11:44:49;12.50;99.90
38118;DHT22;23928;47.562;7.508;2023-03-24T11:47:33;12.60;99.90
38118;DHT22;23928;47.562;7.508;2023-03-24T11:55:36;12.60;99.90
38118;DHT22;23928;47.562;7.508;2023-03-24T11:58:20;12.60;99.90
38118;DHT22;23928;47.562;7.508;2023-03-24T12:01:43;12.70;99.90
38118;DHT22;23928;47.562;7.508;2023-03-24T12:10:01;13.00;99.90
38118;DHT22;23928;47.562;7.508;2023-03-24T12:15:19;13.10;99.90
38118;DHT22;23928;47.562;7.508;2023-03-24T12:20:49;13.20;99.90
38118;DHT22;23928;47.562;7.508;2023-03-24T12:28:44;13.00;99.90
38118;DHT22;23928;47.562;7.508;2023-03-24T12:37:14;12.90;99.90
38118;DHT22;23928;47.562;7.508;2023-03-24T12:39:56;12.90;99.90
38118;DHT22;23928;47.562;7.508;2023-03-24T12:42:30;12.90;99.90
38118;DHT22;23928;47.562;7.508;2023-03-24T12:53:13;12.60;99.90
38118;DHT22;23928;47.562;7.508;2023-03-24T12:55:57;12.50;99.90
38118;DHT22;23928;47.562;7.508;2023-03-24T13:01:15;12.20;99.90
38118;DHT22;23928;47.562;7.508;2023-03-24T13:03:48;12.30;99.90
38118;DHT22;23928;47.562;7.508;2023-03-24T13:06:44;12.40;99.90
38118;DHT22;23928;47.562;7.508;2023-03-24T13:17:40;12.80;99.90
38118;DHT22;23928;47.562;7.508;2023-03-24T13:20:13;13.10;99.90
38118;DHT22;23928;47.562;7.508;2023-03-24T13:22:39;13.10;99.90
38118;DHT22;23928;47.562;7.508;2023-03-24T13:25:18;13.20;99.90
38118;DHT22;23928;47.562;7.508;2023-03-24T13:27:50;13.10;99.90
38118;DHT22;23928;47.562;7.508;2023-03-24T13:30:34;13.10;99.90
38118;DHT22;23928;47.562;7.508;2023-03-24T13:40:56;12.90;99.90
38118;DHT22;23928;47.562;7.508;2023-03-24T13:43:24;12.80;99.90
38118;DHT22;23928;47.562;7.508;2023-03-24T13:48:30;12.70;99.90
38118;DHT22;23928;47.562;7.508;2023-03-24T13:53:44;12.50;99.90
38118;DHT22;23928;47.562;7.508;2023-03-24T13:56:11;12.40;99.90
38118;DHT22;23928;47.562;7.508;2023-03-24T13:59:26;12.40;99.90
38118;DHT22;23928;47.562;7.508;2023-03-24T14:04:49;12.10;99.90
38118;DHT22;23928;47.562;7.508;2023-03-24T14:23:37;11.90;99.90
38118;DHT22;23928;47.562;7.508;2023-03-24T14:26:06;11.80;99.90
38118;DHT22;23928;47.562;7.508;2023-03-24T14:28:39;11.80;99.90
38118;DHT22;23928;47.562;7.508;2023-03-24T14:36:40;11.70;99.90
38118;DHT22;23928;47.562;7.508;2023-03-24T14:39:22;11.60;99.90
38118;DHT22;23928;47.562;7.508;2023-03-24T14:41:50;11.80;99.90
38118;DHT22;23928;47.562;7.508;2023-03-24T14:47:23;11.80;99.90
38118;DHT22;23928;47.562;7.508;2023-03-24T14:49:54;11.80;99.90
38118;DHT22;23928;47.562;7.508;2023-03-24T14:52:39;11.80;99.90
38118;DHT22;23928;47.562;7.508;2023-03-24T14:55:06;11.80;99.90
38118;DHT22;23928;47.562;7.508;2023-03-24T14:57:41;11.90;99.90
38118;DHT22;23928;47.562;7.508;2023-03-24T15:02:44;12.10;99.90
38118;DHT22;23928;47.562;7.508;2023-03-24T15:08:21;12.20;99.90
38118;DHT22;23928;47.562;7.508;2023-03-24T15:13:44;12.20;99.90
38118;DHT22;23928;47.562;7.508;2023-03-24T15:19:23;12.10;99.90
38118;DHT22;23928;47.562;7.508;2023-03-24T15:24:35;11.90;99.90
38118;DHT22;23928;47.562;7.508;2023-03-24T15:31:58;11.90;99.90
38118;DHT22;23928;47.562;7.508;2023-03-24T15:36:58;11.90;99.90
38118;DHT22;23928;47.562;7.508;2023-03-24T15:39:27;11.70;99.90
38118;DHT22;23928;47.562;7.508;2023-03-24T15:41:53;11.90;99.90
38118;DHT22;23928;47.562;7.508;2023-03-24T15:44:25;12.00;99.90
38118;DHT22;23928;47.562;7.508;2023-03-24T15:46:54;12.00;99.90
38118;DHT22;23928;47.562;7.508;2023-03-24T15:49:32;12.10;99.90
38118;DHT22;23928;47.562;7.508;2023-03-24T15:52:00;12.20;99.90
38118;DHT22;23928;47.562;7.508;2023-03-24T15:54:35;12.30;99.90
38118;DHT22;23928;47.562;7.508;2023-03-24T15:57:17;12.30;99.90
38118;DHT22;23928;47.562;7.508;2023-03-24T15:59:48;12.20;99.90
38118;DHT22;23928;47.562;7.508;2023-03-24T16:02:33;12.20;99.90
38118;DHT22;23928;47.562;7.508;2023-03-24T16:05:11;12.10;99.90
38118;DHT22;23928;47.562;7.508;2023-03-24T16:07:38;12.00;99.90
38118;DHT22;23928;47.562;7.508;2023-03-24T16:10:18;11.90;99.90
38118;DHT22;23928;47.562;7.508;2023-03-24T16:12:50;11.80;99.90
38118;DHT22;23928;47.562;7.508;2023-03-24T16:15:15;11.70;99.90
38118;DHT22;23928;47.562;7.508;2023-03-24T16:17:42;11.70;99.90
38118;DHT22;23928;47.562;7.508;2023-03-24T16:20:18;11.60;99.90
38118;DHT22;23928;47.562;7.508;2023-03-24T16:22:44;11.60;99.90
38118;DHT22;23928;47.562;7.508;2023-03-24T16:25:11;11.60;99.90
38118;DHT22;23928;47.562;7.508;2023-03-24T16:27:37;11.60;99.90
38118;DHT22;23928;47.562;7.508;2023-03-24T16:30:19;11.50;99.90
38118;DHT22;23928;47.562;7.508;2023-03-24T16:32:45;11.50;99.90
38118;DHT22;23928;47.562;7.508;2023-03-24T16:35:11;11.60;99.90
38118;DHT22;23928;47.562;7.508;2023-03-24T16:37:37;11.60;99.90
38118;DHT22;23928;47.562;7.508;2023-03-24T16:40:08;11.70;99.90
38118;DHT22;23928;47.562;7.508;2023-03-24T16:42:36;11.60;99.90
38118;DHT22;23928;47.562;7.508;2023-03-24T16:45:01;11.60;99.90
38118;DHT22;23928;47.562;7.508;2023-03-24T16:47:27;11.50;99.90
38118;DHT22;23928;47.562;7.508;2023-03-24T16:49:53;11.40;99.90
38118;DHT22;23928;47.562;7.508;2023-03-24T16:52:18;11.30;99.90
38118;DHT22;23928;47.562;7.508;2023-03-24T16:54:44;11.40;99.90
38118;DHT22;23928;47.562;7.508;2023-03-24T16:57:10;11.50;99.90
38118;DHT22;23928;47.562;7.508;2023-03-24T16:59:36;11.30;99.90
38118;DHT22;23928;47.562;7.508;2023-03-24T17:02:01;11.30;99.90
38118;DHT22;23928;47.562;7.508;2023-03-24T17:04:29;11.10;99.90
38118;DHT22;23928;47.562;7.508;2023-03-24T17:06:58;11.20;99.90
38118;DHT22;23928;47.562;7.508;2023-03-24T17:09:23;10.90;99.90
38118;DHT22;23928;47.562;7.508;2023-03-24T17:11:51;10.90;99.90
38118;DHT22;23928;47.562;7.508;2023-03-24T17:14:17;11.00;99.90
38118;DHT22;23928;47.562;7.508;2023-03-24T17:16:44;10.90;99.90
38118;DHT22;23928;47.562;7.508;2023-03-24T17:19:15;10.90;99.90
38118;DHT22;23928;47.562;7.508;2023-03-24T17:21:49;10.90;99.90
38118;DHT22;23928;47.562;7.508;2023-03-24T17:24:16;10.90;99.90
38118;DHT22;23928;47.562;7.508;2023-03-24T17:26:42;10.90;99.90
38118;DHT22;23928;47.562;7.508;2023-03-24T17:29:11;10.90;99.90
38118;DHT22;23928;47.562;7.508;2023-03-24T17:31:38;10.90;99.90
38118;DHT22;23928;47.562;7.508;2023-03-24T17:34:03;10.90;99.90
38118;DHT22;23928;47.562;7.508;2023-03-24T17:36:29;10.90;99.90
38118;DHT22;23928;47.562;7.508;2023-03-24T17:38:55;10.90;99.90
38118;DHT22;23928;47.562;7.508;2023-03-24T17:41:20;10.90;99.90
38118;DHT22;23928;47.562;7.508;2023-03-24T17:43:46;10.90;99.90
38118;DHT22;23928;47.562;7.508;2023-03-24T17:46:12;10.90;99.90
38118;DHT22;23928;47.562;7.508;2023-03-24T17:48:37;10.90;99.90
38118;DHT22;23928;47.562;7.508;2023-03-24T17:51:04;10.60;99.90
38118;DHT22;23928;47.562;7.508;2023-03-24T17:53:30;10.60;99.90
38118;DHT22;23928;47.562;7.508;2023-03-24T17:55:59;10.60;99.90
38118;DHT22;23928;47.562;7.508;2023-03-24T17:58:30;10.50;99.90
38118;DHT22;23928;47.562;7.508;2023-03-24T18:00:56;10.40;99.90
38118;DHT22;23928;47.562;7.508;2023-03-24T18:03:23;10.20;99.90
38118;DHT22;23928;47.562;7.508;2023-03-24T18:05:50;10.10;99.90
38118;DHT22;23928;47.562;7.508;2023-03-24T18:08:16;10.30;99.90
38118;DHT22;23928;47.562;7.508;2023-03-24T18:10:42;10.00;99.90
38118;DHT22;23928;47.562;7.508;2023-03-24T18:13:09;10.10;99.90
38118;DHT22;23928;47.562;7.508;2023-03-24T18:15:35;10.00;99.90
38118;DHT22;23928;47.562;7.508;2023-03-24T18:18:01;10.00;99.90
38118;DHT22;23928;47.562;7.508;2023-03-24T18:20:27;10.00;99.90
38118;DHT22;23928;47.562;7.508;2023-03-24T18:22:53;10.00;99.90
38118;DHT22;23928;47.562;7.508;2023-03-24T18:25:18;9.90;99.90
38118;DHT22;23928;47.562;7.508;2023-03-24T18:27:44;10.00;99.90
38118;DHT22;23928;47.562;7.508;2023-03-24T18:30:11;10.10;99.90
38118;DHT22;23928;47.562;7.508;2023-03-24T18:32:37;10.00;99.90
38118;DHT22;23928;47.562;7.508;2023-03-24T18:35:08;10.00;99.90
38118;DHT22;23928;47.562;7.508;2023-03-24T18:37:34;9.80;99.90
38118;DHT22;23928;47.562;7.508;2023-03-24T18:40:00;10.00;99.90
38118;DHT22;23928;47.562;7.508;2023-03-24T18:42:26;9.90;99.90
38118;DHT22;23928;47.562;7.508;2023-03-24T18:44:51;9.60;99.90
38118;DHT22;23928;47.562;7.508;2023-03-24T18:47:17;9.80;99.90
38118;DHT22;23928;47.562;7.508;2023-03-24T18:49:43;9.80;99.90
38118;DHT22;23928;47.562;7.508;2023-03-24T18:52:09;9.60;99.90
38118;DHT22;23928;47.562;7.508;2023-03-24T18:54:35;9.30;99.90
38118;DHT22;23928;47.562;7.508;2023-03-24T18:57:01;9.30;99.90
38118;DHT22;23928;47.562;7.508;2023-03-24T18:59:27;9.20;99.90
38118;DHT22;23928;47.562;7.508;2023-03-24T19:01:53;9.10;99.90
38118;DHT22;23928;47.562;7.508;2023-03-24T19:04:19;9.10;99.90